Time;durP1;ratioP1;P1;durP2;ratioP2;P2;SDS_P1;SDS_P2;PMS_P1;PMS_P2;Temp;Humidity;BMP_temperature;BMP_pressure;BME280_temperature;BME280_humidity;BME280_pressure;Samples;Min_cycle;Max_cycle;Signal;HPM_P1;HPM_P2
2020/12/03 00:03:18;;;;;;;80.33;36.70;;;;;;;-4.51;83.51;98685.28;513367;1098;104586;-40
2020/12/03 00:13:24;;;;;;;73.90;34.03;;;;;;;-4.56;84.15;98685.69;513379;1098;104685;-40
2020/12/03 00:23:29;;;;;;;83.50;35.63;;;;;;;-4.57;83.83;98673.73;513740;1098;105121;-39
2020/12/03 00:33:34;;;;;;;69.20;33.50;;;;;;;-4.75;83.91;98652.91;513357;1098;104592;-39
2020/12/03 00:43:38;;;;;;;78.63;37.33;;;;;;;-4.82;83.81;98620.05;513447;1098;105119;-40
2020/12/03 00:53:43;;;;;;;68.63;32.90;;;;;;;-4.97;84.19;98599.81;513472;1098;104626;-40
2020/12/03 01:03:48;;;;;;;101.67;48.30;;;;;;;-4.96;84.52;98588.55;513635;1098;104601;-40
2020/12/03 01:13:53;;;;;;;104.37;42.37;;;;;;;-5.00;84.03;98571.69;513416;1098;104861;-38
2020/12/03 01:23:57;;;;;;;91.87;41.37;;;;;;;-5.17;84.38;98571.53;513469;1098;104548;-40
2020/12/03 01:34:02;;;;;;;93.20;41.67;;;;;;;-5.17;84.14;98532.88;513862;1098;104593;-42
2020/12/03 01:44:07;;;;;;;80.07;34.20;;;;;;;-5.23;84.24;98523.88;513719;1098;104625;-40
2020/12/03 01:54:14;;;;;;;83.00;36.07;;;;;;;-5.25;84.08;98520.63;513562;1098;105422;-43
2020/12/03 02:04:19;;;;;;;84.73;36.07;;;;;;;-5.24;84.19;98535.14;513480;1098;104987;-40
2020/12/03 02:14:25;;;;;;;67.25;31.50;;;;;;;-5.21;83.99;98531.48;513511;1097;104897;-41
2020/12/03 02:34:40;;;;;;;78.87;34.97;;;;;;;-5.04;84.54;98505.88;513775;1098;105002;-41
2020/12/03 02:44:47;;;;;;;83.00;37.93;;;;;;;-4.93;84.46;98510.11;513489;1098;104599;-40
2020/12/03 02:54:53;;;;;;;72.20;33.35;;;;;;;-4.97;84.29;98490.67;513434;1098;104616;-40
2020/12/03 03:04:57;;;;;;;75.17;33.60;;;;;;;-4.93;84.40;98474.00;513448;1098;104616;-40
2020/12/03 03:15:02;;;;;;;70.17;33.27;;;;;;;-4.96;84.39;98484.59;513507;1098;104874;-42
2020/12/03 03:25:08;;;;;;;74.15;34.60;;;;;;;-5.00;84.10;98491.76;513560;1098;104586;-39
2020/12/03 03:35:17;;;;;;;74.30;35.35;;;;;;;-4.99;84.20;98498.55;513570;1098;104855;-40
2020/12/03 03:45:21;;;;;;;79.00;38.17;;;;;;;-5.04;84.24;98479.28;514101;1098;104977;-40
2020/12/03 03:55:26;;;;;;;90.05;40.15;;;;;;;-5.01;84.26;98466.11;513303;1098;104705;-42
2020/12/03 04:05:31;;;;;;;89.70;40.40;;;;;;;-5.08;84.15;98476.16;513779;1098;105067;-40
2020/12/03 04:15:36;;;;;;;85.00;36.87;;;;;;;-5.08;84.31;98477.92;513443;1098;104914;-40
2020/12/03 04:25:40;;;;;;;82.95;39.00;;;;;;;-5.03;83.93;98450.78;513549;1098;104615;-40
2020/12/03 04:35:45;;;;;;;86.80;41.20;;;;;;;-4.99;84.14;98395.41;513315;1098;104673;-41
2020/12/03 04:45:49;;;;;;;93.75;40.40;;;;;;;-5.16;84.20;98378.07;513693;1098;104699;-41
2020/12/03 04:55:55;;;;;;;86.40;37.17;;;;;;;-5.22;84.21;98360.55;513447;1098;104884;-43
2020/12/03 05:06:00;;;;;;;98.40;44.40;;;;;;;-5.20;84.26;98363.02;513398;1098;104702;-41
2020/12/03 05:26:35;;;;;;;89.77;41.13;;;;;;;-4.99;84.29;98372.20;513596;1098;105881;-40
2020/12/03 05:36:40;;;;;;;92.75;38.45;;;;;;;-4.92;83.93;98356.20;513633;1098;104618;-41
2020/12/03 05:46:45;;;;;;;84.55;39.25;;;;;;;-4.82;84.48;98351.82;513749;1098;104551;-41
2020/12/03 05:56:51;;;;;;;101.40;43.93;;;;;;;-4.69;84.44;98345.42;513734;1098;105654;-41
2020/12/03 06:07:17;;;;;;;100.33;46.63;;;;;;;-4.59;83.83;98347.95;513829;1098;104532;-41
2020/12/03 06:17:30;;;;;;;88.77;41.27;;;;;;;-4.59;84.13;98317.00;513479;1098;105140;-40
2020/12/03 06:27:41;;;;;;;98.30;42.65;;;;;;;-4.49;83.84;98311.81;513432;1098;104596;-40
2020/12/03 06:38:02;;;;;;;88.77;40.97;;;;;;;-4.42;83.87;98324.00;513317;1098;104638;-41
2020/12/03 06:48:14;;;;;;;88.30;40.00;;;;;;;-4.30;84.03;98316.87;513617;1098;104637;-40
2020/12/03 06:58:41;;;;;;;92.15;42.40;;;;;;;-4.27;83.98;98313.99;514220;1098;104851;-39
2020/12/03 07:19:40;;;;;;;89.17;44.07;;;;;;;-4.13;83.77;98302.39;513590;1098;104576;-39
2020/12/03 07:29:46;;;;;;;218.03;94.70;;;;;;;-4.13;83.47;98269.63;513481;1098;104941;-42
2020/12/03 07:39:52;;;;;;;94.07;46.47;;;;;;;-3.98;83.76;98259.62;513609;1098;104563;-40
2020/12/03 07:49:56;;;;;;;92.83;44.30;;;;;;;-3.94;83.90;98273.05;513423;1098;104497;-42
2020/12/03 08:00:39;;;;;;;86.30;38.93;;;;;;;-3.85;83.79;98300.57;513463;1098;105390;-40
2020/12/03 08:10:43;;;;;;;94.50;45.43;;;;;;;-3.76;83.71;98269.52;514074;1098;104634;-42
2020/12/03 08:20:48;;;;;;;111.45;50.00;;;;;;;-3.63;83.56;98253.63;513556;1098;104618;-39
2020/12/03 08:41:14;;;;;;;115.45;48.60;;;;;;;-3.26;83.68;98268.95;513249;1098;104705;-39
2020/12/03 08:51:36;;;;;;;94.83;45.23;;;;;;;-2.96;83.52;98272.05;513389;1098;105244;-40
2020/12/03 09:01:41;;;;;;;111.83;47.20;;;;;;;-2.81;82.87;98273.92;513802;1098;104873;-40
2020/12/03 09:11:46;;;;;;;103.27;47.40;;;;;;;-2.53;83.04;98263.37;513686;1098;104618;-41
2020/12/03 09:21:52;;;;;;;120.45;53.80;;;;;;;-2.39;82.54;98256.77;513696;1098;104926;-40
2020/12/03 09:31:57;;;;;;;107.60;46.57;;;;;;;-2.32;82.48;98237.88;513534;1098;104589;-40
2020/12/03 09:42:04;;;;;;;110.70;47.95;;;;;;;-2.14;82.91;98227.38;513347;1098;105150;-40
2020/12/03 10:02:34;;;;;;;114.70;48.53;;;;;;;-1.88;82.58;98206.56;513588;1098;104935;-40
2020/12/03 10:12:44;;;;;;;107.60;47.83;;;;;;;-1.83;81.98;98209.47;513645;1098;104510;-39
2020/12/03 10:22:59;;;;;;;90.22;41.40;;;;;;;-1.74;81.89;98186.95;513629;1098;104583;-40
2020/12/03 10:33:08;;;;;;;100.60;46.60;;;;;;;-1.69;81.93;98163.94;513421;1098;104631;-41
2020/12/03 10:43:13;;;;;;;87.62;41.88;;;;;;;-1.45;81.69;98137.97;513594;1098;104899;-39
2020/12/03 10:53:20;;;;;;;94.00;40.67;;;;;;;-1.20;81.87;98115.38;513386;1098;104922;-40
2020/12/03 11:03:30;;;;;;;80.00;35.20;;;;;;;-1.31;81.67;98126.93;513514;1098;104601;-41
2020/12/03 11:34:16;;;;;;;84.00;37.47;;;;;;;-1.45;81.14;98087.89;514013;1093;104586;-41
2020/12/03 11:54:54;;;;;;;73.97;34.00;;;;;;;-1.36;81.20;98074.76;513444;1098;104858;-40
2020/12/03 12:15:22;;;;;;;74.17;33.47;;;;;;;-1.35;81.63;98034.87;513496;1098;104712;-40
2020/12/03 12:25:27;;;;;;;73.60;34.70;;;;;;;-1.41;80.80;98019.19;513848;1098;104583;-43
2020/12/03 12:35:32;;;;;;;70.63;34.77;;;;;;;-1.34;81.52;97997.59;513586;1098;104592;-43
2020/12/03 12:45:36;;;;;;;63.43;33.13;;;;;;;-1.44;81.26;97976.23;513485;1098;104599;-40
2020/12/03 12:55:41;;;;;;;58.50;31.10;;;;;;;-1.52;81.38;97978.06;513518;1098;104624;-39
2020/12/03 13:05:46;;;;;;;59.13;30.67;;;;;;;-1.56;81.62;97964.63;513456;1098;104708;-42
2020/12/03 13:15:51;;;;;;;59.20;30.23;;;;;;;-1.56;81.28;97938.70;513723;1098;104602;-40
2020/12/03 13:26:11;;;;;;;;;;;;;;;-1.59;81.45;97941.64;513595;1098;104970;-39
2020/12/03 13:36:20;;;;;;;68.43;33.23;;;;;;;-1.49;81.75;97936.23;513369;1098;104874;-39
2020/12/03 13:46:24;;;;;;;56.60;26.87;;;;;;;-1.41;81.23;97903.31;513511;1098;104595;-42
2020/12/03 13:56:28;;;;;;;65.70;31.07;;;;;;;-1.39;81.65;97896.16;513633;1098;104698;-40
2020/12/03 14:06:33;;;;;;;69.90;32.25;;;;;;;-1.36;81.80;97885.44;513581;1098;104599;-40
2020/12/03 14:16:38;;;;;;;61.90;29.00;;;;;;;-1.37;81.49;97873.45;513397;1098;104977;-40
2020/12/03 14:37:02;;;;;;;83.07;37.40;;;;;;;-1.29;81.75;97875.98;513793;1098;104584;-41
2020/12/03 14:47:06;;;;;;;78.43;36.90;;;;;;;-1.21;82.57;97861.34;513533;1098;104586;-39
2020/12/03 14:57:17;;;;;;;80.65;36.10;;;;;;;-1.11;82.15;97856.73;513703;1098;104631;-42
2020/12/03 15:07:21;;;;;;;86.17;41.60;;;;;;;-1.08;82.02;97843.41;513387;1098;104618;-40
2020/12/03 15:17:25;;;;;;;81.00;40.10;;;;;;;-1.02;82.73;97837.52;513135;1098;105038;-41
2020/12/03 15:27:30;;;;;;;85.00;42.30;;;;;;;-0.94;82.73;97834.87;513408;1098;104650;-39
2020/12/03 15:37:34;;;;;;;104.60;45.20;;;;;;;-0.86;82.09;97834.78;513765;1098;104949;-40
2020/12/03 15:47:39;;;;;;;99.77;47.77;;;;;;;-0.79;82.54;97834.88;513414;1098;104578;-40
2020/12/03 15:57:44;;;;;;;100.70;46.03;;;;;;;-0.74;82.87;97811.78;513451;1098;104531;-40
2020/12/03 16:07:49;;;;;;;90.40;42.03;;;;;;;-0.66;82.16;97809.92;513165;1098;104647;-40
2020/12/03 16:17:54;;;;;;;95.20;46.25;;;;;;;-0.60;82.91;97790.22;513244;1098;104947;-39
2020/12/03 16:27:59;;;;;;;90.97;45.67;;;;;;;-0.52;82.85;97795.31;513503;1098;104759;-40
2020/12/03 16:38:03;;;;;;;114.87;52.00;;;;;;;-0.40;82.69;97790.48;513353;1098;104851;-39
2020/12/03 16:48:08;;;;;;;116.93;47.93;;;;;;;-0.35;82.82;97767.37;513559;1098;104983;-40
2020/12/03 16:58:13;;;;;;;128.45;54.45;;;;;;;-0.29;82.26;97753.65;513718;1098;104592;-40
2020/12/03 17:08:17;;;;;;;126.20;56.25;;;;;;;-0.26;83.10;97758.48;513711;1098;104616;-40
2020/12/03 17:18:21;;;;;;;147.80;68.25;;;;;;;-0.25;82.44;97760.09;513273;1098;104627;-40
2020/12/03 17:28:26;;;;;;;146.73;67.63;;;;;;;-0.17;82.60;97754.80;513245;1098;104637;-41
2020/12/03 17:38:30;;;;;;;135.60;62.40;;;;;;;-0.06;83.28;97749.11;513511;1098;104708;-39
2020/12/03 17:48:35;;;;;;;143.97;63.13;;;;;;;0.06;82.87;97735.66;513458;1098;104896;-42
2020/12/03 17:58:40;;;;;;;113.07;56.63;;;;;;;0.09;82.72;97717.09;513389;1098;105057;-42
2020/12/03 18:08:44;;;;;;;173.37;77.30;;;;;;;0.09;83.00;97704.09;513644;1098;105431;-40
2020/12/03 18:18:50;;;;;;;157.10;73.67;;;;;;;0.06;82.70;97686.27;513388;1098;104608;-40
2020/12/03 18:28:55;;;;;;;152.05;72.55;;;;;;;0.09;82.50;97693.70;513216;1098;104929;-41
2020/12/03 18:39:15;;;;;;;130.60;64.33;;;;;;;0.07;82.94;97695.67;513355;1098;104918;-39
2020/12/03 18:49:20;;;;;;;171.90;75.85;;;;;;;0.06;83.32;97694.88;513389;1098;104608;-41
2020/12/03 18:59:25;;;;;;;145.10;65.57;;;;;;;0.08;82.61;97708.48;514272;1098;105666;-40
2020/12/03 19:19:50;;;;;;;135.87;65.40;;;;;;;0.15;82.60;97690.34;513476;1098;104927;-40
2020/12/03 19:29:55;;;;;;;203.30;87.00;;;;;;;0.12;82.66;97675.13;513454;1098;104602;-40
2020/12/03 19:40:00;;;;;;;200.57;87.50;;;;;;;0.09;82.73;97678.09;513436;1098;105000;-41
2020/12/03 19:50:04;;;;;;;172.90;81.57;;;;;;;0.11;82.64;97663.13;513815;1098;104942;-40
2020/12/03 20:00:08;;;;;;;212.77;94.20;;;;;;;0.22;82.99;97655.61;513848;1098;104938;-40
2020/12/03 20:10:12;;;;;;;159.67;76.73;;;;;;;0.32;82.92;97657.09;513548;1098;104594;-41
2020/12/03 20:20:17;;;;;;;212.40;93.60;;;;;;;0.38;83.26;97645.94;513385;1098;104708;-41
2020/12/03 20:30:22;;;;;;;254.15;102.50;;;;;;;0.41;83.44;97643.76;513357;1098;104609;-41
2020/12/03 20:40:27;;;;;;;213.00;92.07;;;;;;;0.39;82.99;97642.34;513306;1098;104586;-41
2020/12/03 20:50:36;;;;;;;244.75;105.15;;;;;;;0.44;83.35;97635.57;513295;1098;104939;-41
2020/12/03 21:00:41;;;;;;;170.85;79.75;;;;;;;0.33;82.76;97633.50;513657;1098;104631;-41
2020/12/03 21:10:46;;;;;;;205.03;95.30;;;;;;;0.42;82.88;97629.76;513671;1098;104946;-40
2020/12/03 21:20:50;;;;;;;266.70;110.03;;;;;;;0.37;82.88;97633.92;513299;1098;104592;-40
2020/12/03 21:30:55;;;;;;;256.63;104.10;;;;;;;0.36;82.74;97635.72;513396;1098;104612;-41
2020/12/03 21:40:59;;;;;;;203.70;90.83;;;;;;;0.43;82.90;97591.55;513611;1098;104554;-40
2020/12/03 21:51:04;;;;;;;221.50;93.07;;;;;;;0.46;82.66;97591.17;513471;1098;104593;-41
2020/12/03 22:01:09;;;;;;;200.07;89.43;;;;;;;0.54;83.71;97568.43;513898;1098;104586;-40
2020/12/03 22:21:36;;;;;;;214.87;93.93;;;;;;;0.66;83.63;97552.27;513596;1098;104630;-41
2020/12/03 22:31:42;;;;;;;169.67;76.13;;;;;;;0.64;83.32;97554.26;513399;1098;104580;-40
2020/12/03 22:41:49;;;;;;;164.83;72.57;;;;;;;0.73;83.24;97545.31;513845;1098;104618;-43
2020/12/03 22:51:54;;;;;;;124.13;58.50;;;;;;;0.73;83.00;97488.88;513305;1098;104560;-41
2020/12/03 23:01:59;;;;;;;75.40;35.83;;;;;;;0.69;83.01;97485.03;513348;1098;104682;-42
2020/12/03 23:12:04;;;;;;;74.33;35.90;;;;;;;0.68;82.98;97514.66;513621;1098;104619;-41
2020/12/03 23:22:10;;;;;;;66.70;32.73;;;;;;;0.64;83.45;97486.63;513316;1098;104592;-41
2020/12/03 23:32:14;;;;;;;88.37;38.77;;;;;;;0.71;82.97;97467.46;513979;1098;104560;-40
2020/12/03 23:42:19;;;;;;;91.10;38.60;;;;;;;0.71;83.16;97459.66;513768;1098;104596;-41
2020/12/03 23:52:24;;;;;;;65.55;31.05;;;;;;;0.69;82.92;97440.00;513546;1098;104605;-41
